createdAt,value
2023-02-13T00:00:03.622Z,2.08
2023-02-13T00:02:31.286Z,2.07
2023-02-13T00:04:58.903Z,2.07
2023-02-13T00:07:26.510Z,2.06
2023-02-13T00:09:55.432Z,2.06
2023-02-13T00:12:23.023Z,2.07
2023-02-13T00:14:50.618Z,2.09
2023-02-13T00:17:18.190Z,2.07
2023-02-13T00:19:45.734Z,2.04
2023-02-13T00:22:13.502Z,2.01
2023-02-13T00:24:41.064Z,1.98
2023-02-13T00:27:10.007Z,1.88
2023-02-13T00:29:37.629Z,1.81
2023-02-13T00:32:05.531Z,1.85
2023-02-13T00:34:33.279Z,1.84
2023-02-13T00:37:00.848Z,1.85
2023-02-13T00:39:28.591Z,1.89
2023-02-13T00:41:56.177Z,1.86
2023-02-13T00:44:25.137Z,1.85
2023-02-13T00:46:52.716Z,1.81
2023-02-13T00:49:20.349Z,1.75
2023-02-13T00:51:47.952Z,1.77
2023-02-13T00:54:15.566Z,1.75
2023-02-13T00:56:43.148Z,1.72
2023-02-13T00:59:10.765Z,1.71
2023-02-13T01:01:39.743Z,1.70
2023-02-13T01:04:07.430Z,1.71
2023-02-13T01:06:35.020Z,1.77
2023-02-13T01:09:04.618Z,1.76
2023-02-13T01:11:32.231Z,1.74
2023-02-13T01:13:59.836Z,1.78
2023-02-13T01:16:27.624Z,1.79
2023-02-13T01:18:56.620Z,1.76
2023-02-13T01:21:24.521Z,1.74
2023-02-13T01:23:52.528Z,1.67
2023-02-13T01:26:22.973Z,1.65
2023-02-13T01:28:53.715Z,1.69
2023-02-13T01:31:21.822Z,1.70
2023-02-13T01:33:49.510Z,1.70
2023-02-13T01:36:18.506Z,1.68
2023-02-13T01:38:46.101Z,1.66
2023-02-13T01:41:15.435Z,1.61
2023-02-13T01:43:48.465Z,1.63
2023-02-13T01:46:18.966Z,1.64
2023-02-13T01:48:48.045Z,1.66
2023-02-13T01:51:19.547Z,1.65
2023-02-13T01:53:49.681Z,1.65
2023-02-13T01:56:20.736Z,1.65
2023-02-13T01:58:50.389Z,1.60
2023-02-13T02:01:18.427Z,1.50
2023-02-13T02:03:48.914Z,1.52
2023-02-13T02:06:22.515Z,1.52
2023-02-13T02:08:51.430Z,1.53
2023-02-13T02:11:23.741Z,1.52
2023-02-13T02:13:51.575Z,1.47
2023-02-13T02:16:19.233Z,1.50
2023-02-13T02:18:46.844Z,1.52
2023-02-13T02:21:40.853Z,1.55
2023-02-13T02:24:22.414Z,1.56
2023-02-13T02:27:03.303Z,1.54
2023-02-13T02:29:45.622Z,1.55
2023-02-13T02:32:24.440Z,1.58
2023-02-13T02:34:57.425Z,1.55
2023-02-13T02:37:39.779Z,1.56
2023-02-13T02:40:16.986Z,1.55
2023-02-13T02:42:50.631Z,1.54
2023-02-13T02:45:22.111Z,1.51
2023-02-13T02:48:12.963Z,1.46
2023-02-13T02:50:43.653Z,1.45
2023-02-13T02:53:19.746Z,1.39
2023-02-13T02:55:51.229Z,1.42
2023-02-13T02:58:50.492Z,1.41
2023-02-13T03:01:39.794Z,1.43
2023-02-13T03:04:31.512Z,1.46
2023-02-13T03:07:01.482Z,1.45
2023-02-13T03:09:49.270Z,1.45
2023-02-13T03:12:37.814Z,1.44
2023-02-13T03:15:06.075Z,1.45
2023-02-13T03:17:51.280Z,1.47
2023-02-13T03:20:42.818Z,1.45
2023-02-13T03:23:14.912Z,1.43
2023-02-13T03:25:48.280Z,1.43
2023-02-13T03:28:36.874Z,1.37
2023-02-13T03:31:12.841Z,1.35
2023-02-13T03:33:53.870Z,1.35
2023-02-13T03:36:49.195Z,1.35
2023-02-13T03:39:20.502Z,1.38
2023-02-13T03:41:52.284Z,1.38
2023-02-13T03:44:24.010Z,1.38
2023-02-13T03:46:53.852Z,1.40
2023-02-13T03:49:41.256Z,1.40
2023-02-13T03:52:12.974Z,1.45
2023-02-13T03:55:01.223Z,1.45
2023-02-13T03:57:48.314Z,1.47
2023-02-13T04:00:17.298Z,1.46
2023-02-13T04:02:53.081Z,1.43
2023-02-13T04:05:23.183Z,1.43
2023-02-13T04:07:52.213Z,1.44
2023-02-13T04:10:20.449Z,1.45
2023-02-13T04:12:54.783Z,1.41
2023-02-13T04:15:27.637Z,1.37
2023-02-13T04:17:58.866Z,1.37
2023-02-13T04:20:28.631Z,1.35
2023-02-13T04:22:57.606Z,1.36
2023-02-13T04:25:25.168Z,1.34
2023-02-13T04:27:52.787Z,1.32
2023-02-13T04:30:20.645Z,1.32
2023-02-13T04:32:48.259Z,1.32
2023-02-13T04:35:16.374Z,1.27
2023-02-13T04:37:43.971Z,1.29
2023-02-13T04:40:13.612Z,1.24
2023-02-13T04:42:41.194Z,1.26
2023-02-13T04:45:09.600Z,1.16
2023-02-13T04:47:37.336Z,1.18
2023-02-13T04:50:05.390Z,1.05
2023-02-13T04:52:32.968Z,1.03
2023-02-13T04:55:00.682Z,0.89
2023-02-13T04:57:29.609Z,0.89
2023-02-13T04:59:57.239Z,0.90
2023-02-13T05:02:24.883Z,0.96
2023-02-13T05:04:52.568Z,1.01
2023-02-13T05:07:20.095Z,1.04
2023-02-13T05:09:47.741Z,1.01
2023-02-13T05:12:15.596Z,1.03
2023-02-13T05:14:44.858Z,1.02
2023-02-13T05:17:12.487Z,1.04
2023-02-13T05:19:40.260Z,1.09
2023-02-13T05:22:25.584Z,1.13
2023-02-13T05:24:59.063Z,1.16
2023-02-13T05:27:26.849Z,1.10
2023-02-13T05:29:57.070Z,1.06
2023-02-13T05:32:24.677Z,1.07
2023-02-13T05:34:52.279Z,1.05
2023-02-13T05:37:19.888Z,1.05
2023-02-13T05:39:47.470Z,1.06
2023-02-13T05:42:15.081Z,1.08
2023-02-13T05:44:42.690Z,1.11
2023-02-13T05:47:11.628Z,1.08
2023-02-13T05:49:39.241Z,1.07
2023-02-13T05:52:06.890Z,1.10
2023-02-13T05:54:34.726Z,1.11
2023-02-13T05:57:02.309Z,1.13
2023-02-13T05:59:29.919Z,1.20
2023-02-13T06:01:57.512Z,1.24
2023-02-13T06:04:26.612Z,1.24
2023-02-13T06:06:54.210Z,1.26
2023-02-13T06:09:22.054Z,1.25
2023-02-13T06:11:49.923Z,1.26
2023-02-13T06:14:17.712Z,1.29
2023-02-13T06:16:45.387Z,1.25
2023-02-13T06:19:13.024Z,1.20
2023-02-13T06:21:41.970Z,1.17
2023-02-13T06:24:09.626Z,1.19
2023-02-13T06:26:37.280Z,1.16
2023-02-13T06:29:06.518Z,1.06
2023-02-13T06:31:34.479Z,0.99
2023-02-13T06:34:02.200Z,0.96
2023-02-13T06:36:29.853Z,0.93
2023-02-13T06:38:58.751Z,0.92
2023-02-13T06:41:26.356Z,0.99
2023-02-13T06:43:53.959Z,0.97
2023-02-13T06:46:21.578Z,1.00
2023-02-13T06:48:49.224Z,1.06
2023-02-13T06:51:16.802Z,1.02
2023-02-13T06:53:44.375Z,1.02
2023-02-13T06:56:13.314Z,1.04
2023-02-13T06:58:41.060Z,1.09
2023-02-13T07:01:08.885Z,1.03
2023-02-13T07:03:36.551Z,1.06
2023-02-13T07:06:04.286Z,0.98
2023-02-13T07:08:31.879Z,0.98
2023-02-13T07:10:59.621Z,0.93
2023-02-13T07:13:28.648Z,0.85
2023-02-13T07:15:58.236Z,0.86
2023-02-13T07:18:25.860Z,0.94
2023-02-13T07:20:53.378Z,1.02
2023-02-13T07:23:20.958Z,1.02
2023-02-13T07:25:48.536Z,1.06
2023-02-13T07:28:16.174Z,1.09
2023-02-13T07:30:45.154Z,1.04
2023-02-13T07:33:13.699Z,1.04
2023-02-13T07:35:41.994Z,1.09
2023-02-13T07:38:12.532Z,1.06
2023-02-13T07:40:40.125Z,1.08
2023-02-13T07:43:07.738Z,1.07
2023-02-13T07:45:35.349Z,1.04
2023-02-13T07:48:04.369Z,1.06
2023-02-13T07:50:32.314Z,1.00
2023-02-13T07:53:01.624Z,0.97
2023-02-13T07:55:29.836Z,0.86
2023-02-13T07:57:57.920Z,0.73
2023-02-13T08:00:25.646Z,0.70
2023-02-13T08:02:53.230Z,0.70
2023-02-13T08:05:22.189Z,0.73
2023-02-13T08:07:49.775Z,0.72
2023-02-13T08:10:34.960Z,0.78
2023-02-13T08:13:02.560Z,0.77
2023-02-13T08:15:30.142Z,0.85
2023-02-13T08:17:57.819Z,0.87
2023-02-13T08:20:26.979Z,0.82
2023-02-13T08:22:54.645Z,0.76
2023-02-13T08:25:22.236Z,0.79
2023-02-13T08:27:49.844Z,0.81
2023-02-13T08:30:17.599Z,0.83
2023-02-13T08:32:53.810Z,0.80
2023-02-13T08:35:22.698Z,0.85
2023-02-13T08:37:51.684Z,0.88
2023-02-13T08:40:19.508Z,0.86
2023-02-13T08:42:47.134Z,0.87
2023-02-13T08:45:14.698Z,0.90
2023-02-13T08:47:42.285Z,0.94
2023-02-13T08:50:10.500Z,0.87
2023-02-13T08:52:38.073Z,0.87
2023-02-13T08:55:07.542Z,0.93
2023-02-13T08:57:35.112Z,0.87
2023-02-13T09:00:02.953Z,0.83
2023-02-13T09:02:30.556Z,0.77
2023-02-13T09:04:58.240Z,0.65
2023-02-13T09:07:26.375Z,0.76
2023-02-13T09:09:54.001Z,0.82
2023-02-13T09:12:22.911Z,0.71
2023-02-13T09:14:50.534Z,0.79
2023-02-13T09:17:19.688Z,0.93
2023-02-13T09:19:47.414Z,1.05
2023-02-13T09:22:17.114Z,1.13
2023-02-13T09:24:44.759Z,1.07
2023-02-13T09:27:12.371Z,1.14
2023-02-13T09:29:41.321Z,1.10
2023-02-13T09:32:08.957Z,1.10
2023-02-13T09:38:23.331Z,1.21
2023-02-13T09:40:52.468Z,1.21
2023-02-13T09:43:28.189Z,1.26
2023-02-13T09:46:00.276Z,1.25
2023-02-13T09:48:30.977Z,1.32
2023-02-13T09:50:59.034Z,1.40
2023-02-13T09:53:29.073Z,1.45
2023-02-13T09:56:09.788Z,1.53
2023-02-13T09:58:43.971Z,1.51
2023-02-13T10:01:21.193Z,1.46
2023-02-13T10:03:52.671Z,1.41
2023-02-13T10:06:24.559Z,1.47
2023-02-13T10:09:07.738Z,1.59
2023-02-13T10:11:49.942Z,1.67
2023-02-13T10:14:17.950Z,1.80
2023-02-13T10:16:51.671Z,1.76
2023-02-13T10:19:33.673Z,1.65
2023-02-13T10:22:05.901Z,1.56
2023-02-13T10:24:36.981Z,1.66
2023-02-13T10:27:07.650Z,1.67
2023-02-13T10:29:57.509Z,1.74
2023-02-13T10:32:31.298Z,1.71
2023-02-13T10:35:00.417Z,1.81
2023-02-13T10:37:29.748Z,1.84
2023-02-13T10:39:57.743Z,1.94
2023-02-13T10:42:35.704Z,1.92
2023-02-13T10:45:20.680Z,1.93
2023-02-13T10:48:01.454Z,2.06
2023-02-13T10:50:33.038Z,1.98
2023-02-13T10:53:09.227Z,2.02
2023-02-13T10:55:58.006Z,2.03
2023-02-13T10:58:33.474Z,2.20
2023-02-13T11:01:04.483Z,2.10
2023-02-13T11:03:33.437Z,1.91
2023-02-13T11:06:02.244Z,2.04
2023-02-13T11:08:33.449Z,2.21
2023-02-13T11:11:01.359Z,2.23
2023-02-13T11:13:30.910Z,2.36
2023-02-13T11:16:02.066Z,2.20
2023-02-13T11:18:34.088Z,2.13
2023-02-13T11:21:04.966Z,2.07
2023-02-13T11:23:39.028Z,2.14
2023-02-13T11:26:09.856Z,2.15
2023-02-13T11:28:39.604Z,2.24
2023-02-13T11:31:13.182Z,2.34
2023-02-13T11:33:42.688Z,2.46
2023-02-13T11:36:14.952Z,2.44
2023-02-13T11:38:42.659Z,2.36
2023-02-13T11:41:11.903Z,2.41
2023-02-13T11:43:46.168Z,2.48
2023-02-13T11:46:20.035Z,2.36
2023-02-13T11:49:00.327Z,2.27
2023-02-13T11:51:42.618Z,2.20
2023-02-13T11:54:20.742Z,2.09
2023-02-13T11:57:04.130Z,2.02
2023-02-13T11:59:34.934Z,2.17
2023-02-13T12:02:04.832Z,2.35
2023-02-13T12:04:33.784Z,2.50
2023-02-13T12:07:03.609Z,2.63
2023-02-13T12:09:31.786Z,2.73
2023-02-13T12:12:02.570Z,2.78
2023-02-13T12:14:32.929Z,2.94
2023-02-13T12:17:02.332Z,2.98
2023-02-13T12:19:32.949Z,2.85
2023-02-13T12:22:14.985Z,2.76
2023-02-13T12:25:12.840Z,2.93
2023-02-13T12:27:47.085Z,2.96
2023-02-13T12:30:32.111Z,2.88
2023-02-13T12:33:12.157Z,2.54
2023-02-13T12:35:47.671Z,2.70
2023-02-13T12:38:25.970Z,2.76
2023-02-13T12:41:15.935Z,2.56
2023-02-13T12:44:23.647Z,2.83
2023-02-13T12:46:58.383Z,2.96
2023-02-13T12:49:50.477Z,3.11
2023-02-13T12:52:28.390Z,3.09
2023-02-13T12:55:07.453Z,3.15
2023-02-13T12:57:42.892Z,3.23
2023-02-13T13:00:22.300Z,3.13
2023-02-13T13:03:22.445Z,3.27
2023-02-13T13:06:13.249Z,3.24
2023-02-13T13:09:12.303Z,2.83
2023-02-13T13:11:58.624Z,2.85
2023-02-13T13:14:32.531Z,3.23
2023-02-13T13:17:08.224Z,3.42
2023-02-13T13:19:42.832Z,3.58
2023-02-13T13:22:14.354Z,3.64
2023-02-13T13:24:51.959Z,3.51
2023-02-13T13:27:23.400Z,3.43
2023-02-13T13:29:55.716Z,3.53
2023-02-13T13:32:24.158Z,3.59
2023-02-13T13:34:52.607Z,3.49
2023-02-13T13:37:26.033Z,3.67
2023-02-13T13:39:58.430Z,3.77
2023-02-13T13:42:35.141Z,3.55
2023-02-13T13:45:24.221Z,3.67
2023-02-13T13:48:15.548Z,3.78
2023-02-13T13:50:44.434Z,3.74
2023-02-13T13:53:14.755Z,3.84
2023-02-13T13:56:12.659Z,3.70
2023-02-13T13:58:44.194Z,3.60
2023-02-13T14:01:26.061Z,3.73
2023-02-13T14:03:55.563Z,3.76
2023-02-13T14:06:24.734Z,3.85
2023-02-13T14:09:04.148Z,3.86
2023-02-13T14:11:40.504Z,4.03
2023-02-13T14:14:55.226Z,3.94
2023-02-13T14:18:01.237Z,3.86
2023-02-13T14:20:39.105Z,3.72
2023-02-13T14:23:23.135Z,3.86
2023-02-13T14:25:50.971Z,3.98
2023-02-13T14:28:22.855Z,4.07
2023-02-13T14:30:51.688Z,4.08
2023-02-13T14:33:26.616Z,3.90
2023-02-13T14:36:03.601Z,3.66
2023-02-13T14:38:31.722Z,3.81
2023-02-13T14:41:00.022Z,3.85
2023-02-13T14:43:34.491Z,3.71
2023-02-13T14:46:09.395Z,3.88
2023-02-13T14:48:41.530Z,4.02
2023-02-13T14:51:13.563Z,4.07
2023-02-13T14:53:48.943Z,3.94
2023-02-13T14:56:19.834Z,3.82
2023-02-13T14:58:51.282Z,3.84
2023-02-13T15:01:25.408Z,4.03
2023-02-13T15:03:56.010Z,3.95
2023-02-13T15:06:28.601Z,4.01
2023-02-13T15:08:57.628Z,3.90
2023-02-13T15:11:37.245Z,3.80
2023-02-13T15:14:18.854Z,3.74
2023-02-13T15:16:48.063Z,3.84
2023-02-13T15:19:17.404Z,3.89
2023-02-13T15:21:51.784Z,3.83
2023-02-13T15:24:22.829Z,3.72
2023-02-13T15:26:58.125Z,3.75
2023-02-13T15:29:31.029Z,3.85
2023-02-13T15:32:01.013Z,3.91
2023-02-13T15:34:32.162Z,3.95
2023-02-13T15:37:02.886Z,3.96
2023-02-13T15:39:31.852Z,3.97
2023-02-13T15:42:01.347Z,4.05
2023-02-13T15:44:30.570Z,4.01
2023-02-13T15:47:05.309Z,4.00
2023-02-13T15:49:38.706Z,4.00
2023-02-13T15:52:09.990Z,4.01
2023-02-13T15:54:37.642Z,4.04
2023-02-13T15:57:07.473Z,3.99
2023-02-13T15:59:37.422Z,3.89
2023-02-13T16:02:07.040Z,3.65
2023-02-13T16:04:35.276Z,3.46
2023-02-13T16:07:02.917Z,3.29
2023-02-13T16:09:35.635Z,3.09
2023-02-13T16:12:07.224Z,3.00
2023-02-13T16:14:37.869Z,3.00
2023-02-13T16:17:06.902Z,2.99
2023-02-13T16:19:40.311Z,2.93
2023-02-13T16:22:18.061Z,2.88
2023-02-13T16:24:50.058Z,2.81
2023-02-13T16:27:18.116Z,2.82
2023-02-13T16:29:48.559Z,2.76
2023-02-13T16:32:21.805Z,2.74
2023-02-13T16:34:50.165Z,2.68
2023-02-13T16:37:28.333Z,2.52
2023-02-13T16:39:57.407Z,2.28
2023-02-13T16:42:25.020Z,2.18
2023-02-13T16:44:52.651Z,2.01
2023-02-13T16:47:23.977Z,2.03
2023-02-13T16:49:54.912Z,1.93
2023-02-13T16:52:24.243Z,1.90
2023-02-13T16:54:54.986Z,1.60
2023-02-13T16:57:27.510Z,1.48
2023-02-13T17:00:15.251Z,1.44
2023-02-13T17:02:42.915Z,1.29
2023-02-13T17:05:21.337Z,1.24
2023-02-13T17:07:51.054Z,1.17
2023-02-13T17:10:21.299Z,1.15
2023-02-13T17:12:51.270Z,1.14
2023-02-13T17:15:21.079Z,1.16
2023-02-13T17:17:50.556Z,1.11
2023-02-13T17:20:19.778Z,1.05
2023-02-13T17:27:26.297Z,1.52
2023-02-13T17:29:54.093Z,1.80
2023-02-13T17:32:24.589Z,1.80
2023-02-13T17:34:52.259Z,1.69
2023-02-13T17:37:22.022Z,1.72
2023-02-13T17:39:50.146Z,1.62
2023-02-13T17:42:20.628Z,1.57
2023-02-13T17:44:49.819Z,1.31
2023-02-13T17:47:17.438Z,1.02
2023-02-13T17:49:45.095Z,0.77
2023-02-13T17:52:16.944Z,0.69
2023-02-13T17:54:45.025Z,0.60
2023-02-13T17:57:13.561Z,0.50
2023-02-13T17:59:41.172Z,0.39
2023-02-13T18:02:16.903Z,0.44
2023-02-13T18:04:44.783Z,0.51
2023-02-13T18:07:13.587Z,0.54
2023-02-13T18:09:41.574Z,0.49
2023-02-13T18:12:13.677Z,0.48
2023-02-13T18:14:41.290Z,0.44
2023-02-13T18:17:08.970Z,0.39
2023-02-13T18:19:38.317Z,0.43
2023-02-13T18:22:07.560Z,0.49
2023-02-13T18:24:36.755Z,0.49
2023-02-13T18:27:05.178Z,0.57
2023-02-13T18:29:32.770Z,0.58
2023-02-13T18:32:00.458Z,0.61
2023-02-13T18:34:28.088Z,0.64
2023-02-13T18:36:57.049Z,0.63
2023-02-13T18:39:24.675Z,0.67
2023-02-13T18:41:52.301Z,0.68
2023-02-13T18:44:28.169Z,0.68
2023-02-13T18:46:56.464Z,0.68
2023-02-13T18:49:24.115Z,0.65
2023-02-13T18:51:51.712Z,0.66
2023-02-13T18:54:21.226Z,0.66
2023-02-13T18:56:48.896Z,0.64
2023-02-13T18:59:16.713Z,0.71
2023-02-13T19:01:44.925Z,0.70
2023-02-13T19:04:12.946Z,0.67
2023-02-13T19:06:41.438Z,0.69
2023-02-13T19:09:09.558Z,0.66
2023-02-13T19:11:39.503Z,0.70
2023-02-13T19:14:07.722Z,0.73
2023-02-13T19:16:36.357Z,0.74
2023-02-13T19:19:06.525Z,0.74
2023-02-13T19:21:36.303Z,0.76
2023-02-13T19:24:04.933Z,0.74
2023-02-13T19:26:32.677Z,0.72
2023-02-13T19:29:01.645Z,0.67
2023-02-13T19:31:32.691Z,0.70
2023-02-13T19:34:00.615Z,0.71
2023-02-13T19:36:29.960Z,0.70
2023-02-13T19:38:58.730Z,0.73
2023-02-13T19:41:26.546Z,0.71
2023-02-13T19:43:54.333Z,0.62
2023-02-13T19:46:24.818Z,0.64
2023-02-13T19:48:52.762Z,0.65
2023-02-13T19:51:21.693Z,0.68
2023-02-13T19:53:49.652Z,0.69
2023-02-13T19:56:17.298Z,0.70
2023-02-13T19:58:44.943Z,0.74
2023-02-13T20:01:15.090Z,0.62
2023-02-13T20:03:44.609Z,0.60
2023-02-13T20:06:14.007Z,0.62
2023-02-13T20:08:43.017Z,0.64
2023-02-13T20:11:11.806Z,0.64
2023-02-13T20:13:40.076Z,0.66
2023-02-13T20:16:08.616Z,0.63
2023-02-13T20:18:37.045Z,0.64
2023-02-13T20:21:07.933Z,0.62
2023-02-13T20:23:35.760Z,0.61
2023-02-13T20:26:04.884Z,0.66
2023-02-13T20:28:32.546Z,0.68
2023-02-13T20:31:00.704Z,0.69
2023-02-13T20:33:28.586Z,0.71
2023-02-13T20:35:56.196Z,0.73
2023-02-13T20:38:25.623Z,0.76
2023-02-13T20:40:53.222Z,0.69
2023-02-13T20:43:21.730Z,0.61
2023-02-13T20:45:49.400Z,0.62
2023-02-13T20:48:17.035Z,0.66
2023-02-13T20:50:44.604Z,0.64
2023-02-13T20:53:12.988Z,0.66
2023-02-13T20:55:41.917Z,0.65
2023-02-13T20:58:09.994Z,0.66
2023-02-13T21:00:37.639Z,0.62
2023-02-13T21:03:05.399Z,0.65
2023-02-13T21:05:33.040Z,0.62
2023-02-13T21:08:00.631Z,0.58
2023-02-13T21:10:28.219Z,0.54
2023-02-13T21:12:57.156Z,0.57
2023-02-13T21:15:24.755Z,0.55
2023-02-13T21:17:52.352Z,0.54
2023-02-13T21:20:20.119Z,0.52
2023-02-13T21:22:47.911Z,0.49
2023-02-13T21:25:15.749Z,0.40
2023-02-13T21:27:43.365Z,0.22
2023-02-13T21:30:13.296Z,0.16
2023-02-13T21:32:42.228Z,0.25
2023-02-13T21:35:09.961Z,0.24
2023-02-13T21:37:37.622Z,0.23
2023-02-13T21:40:06.196Z,0.25
2023-02-13T21:42:33.823Z,0.26
2023-02-13T21:45:01.424Z,0.31
2023-02-13T21:47:30.429Z,0.34
2023-02-13T21:49:58.053Z,0.31
2023-02-13T21:52:25.997Z,0.31
2023-02-13T21:54:53.611Z,0.23
2023-02-13T21:57:21.211Z,0.21
2023-02-13T21:59:49.328Z,0.10
2023-02-13T22:02:17.118Z,-0.05
2023-02-13T22:04:46.099Z,-0.07
2023-02-13T22:07:13.709Z,0.00
2023-02-13T22:09:41.333Z,0.02
2023-02-13T22:12:08.973Z,-0.08
2023-02-13T22:14:36.605Z,-0.21
2023-02-13T22:17:04.276Z,-0.29
2023-02-13T22:19:32.040Z,-0.37
2023-02-13T22:22:01.173Z,-0.38
2023-02-13T22:24:28.889Z,-0.30
2023-02-13T22:26:56.523Z,-0.29
2023-02-13T22:29:25.709Z,-0.29
2023-02-13T22:31:53.466Z,-0.33
2023-02-13T22:34:21.239Z,-0.50
2023-02-13T22:36:48.870Z,-0.53
2023-02-13T22:39:17.823Z,-0.61
2023-02-13T22:41:45.754Z,-0.60
2023-02-13T22:44:13.558Z,-0.64
2023-02-13T22:46:41.333Z,-0.69
2023-02-13T22:49:09.018Z,-0.66
2023-02-13T22:51:37.702Z,-0.66
2023-02-13T22:54:06.069Z,-0.63
2023-02-13T22:56:35.528Z,-0.66
2023-02-13T22:59:03.192Z,-0.73
2023-02-13T23:01:31.151Z,-0.75
2023-02-13T23:03:58.960Z,-0.77
2023-02-13T23:06:27.270Z,-0.69
2023-02-13T23:08:55.054Z,-0.73
2023-02-13T23:11:42.144Z,-0.77
2023-02-13T23:14:11.252Z,-0.85
2023-02-13T23:16:57.174Z,-0.95
2023-02-13T23:19:25.447Z,-0.99
2023-02-13T23:21:53.106Z,-1.03
2023-02-13T23:24:20.741Z,-1.03
2023-02-13T23:26:48.367Z,-1.00
2023-02-13T23:29:17.355Z,-0.95
2023-02-13T23:31:45.087Z,-0.86
2023-02-13T23:34:12.846Z,-0.96
2023-02-13T23:36:40.493Z,-1.05
2023-02-13T23:39:08.112Z,-1.02
2023-02-13T23:41:35.775Z,-0.98
2023-02-13T23:44:03.363Z,-0.91
2023-02-13T23:46:32.470Z,-0.94
2023-02-13T23:49:00.170Z,-1.01
2023-02-13T23:51:27.803Z,-1.02
2023-02-13T23:53:57.233Z,-0.96
2023-02-13T23:56:25.090Z,-0.89
2023-02-13T23:58:52.694Z,-1.00
